createdAt,value
2017-12-23T00:01:56.345Z,49.60
2017-12-23T00:04:23.097Z,57.63
2017-12-23T00:06:49.753Z,50.50
2017-12-23T00:09:16.433Z,54.53
2017-12-23T00:11:43.092Z,55.80
2017-12-23T00:14:09.773Z,63.50
2017-12-23T00:16:36.398Z,55.27
2017-12-23T00:19:03.057Z,59.73
2017-12-23T00:21:29.724Z,57.53
2017-12-23T00:23:56.377Z,69.40
2017-12-23T00:26:23.058Z,53.83
2017-12-23T00:28:49.705Z,62.07
2017-12-23T00:31:16.375Z,57.23
2017-12-23T00:33:43.027Z,60.97
2017-12-23T00:36:09.698Z,64.37
2017-12-23T00:38:36.358Z,69.70
2017-12-23T00:41:03.357Z,62.57
2017-12-23T00:43:30.015Z,60.13
2017-12-23T00:45:56.669Z,67.20
2017-12-23T00:48:23.341Z,70.13
2017-12-23T00:50:50.124Z,67.90
2017-12-23T00:53:16.801Z,58.87
2017-12-23T00:55:43.452Z,60.00
2017-12-23T00:58:10.133Z,58.57
2017-12-23T01:00:36.797Z,60.73
2017-12-23T01:03:03.464Z,66.67
2017-12-23T01:05:30.113Z,63.43
2017-12-23T01:07:56.768Z,69.70
2017-12-23T01:10:23.614Z,72.50
2017-12-23T01:12:50.266Z,71.20
2017-12-23T01:15:17.108Z,68.37
2017-12-23T01:17:43.760Z,73.83
2017-12-23T01:20:11.038Z,60.97
2017-12-23T01:22:37.693Z,73.90
2017-12-23T01:25:04.352Z,76.63
2017-12-23T01:27:31.006Z,62.97
2017-12-23T01:29:57.691Z,66.10
2017-12-23T01:32:24.351Z,72.70
2017-12-23T01:34:51.032Z,72.73
2017-12-23T01:37:17.681Z,75.97
2017-12-23T01:39:44.336Z,57.23
2017-12-23T01:42:11.152Z,67.03
2017-12-23T01:44:37.805Z,62.73
2017-12-23T01:47:04.517Z,63.00
2017-12-23T01:49:31.176Z,74.77
2017-12-23T01:51:57.852Z,63.67
2017-12-23T01:54:24.506Z,61.03
2017-12-23T01:56:51.177Z,66.53
2017-12-23T01:59:17.829Z,57.00
2017-12-23T02:01:44.629Z,52.23
2017-12-23T02:04:11.335Z,54.30
2017-12-23T02:06:38.152Z,59.40
2017-12-23T02:09:04.890Z,53.27
2017-12-23T02:11:31.552Z,59.90
2017-12-23T02:13:58.805Z,61.73
2017-12-23T02:16:25.548Z,52.93
2017-12-23T02:18:52.313Z,58.30
2017-12-23T02:21:19.033Z,61.70
2017-12-23T02:23:45.705Z,67.83
2017-12-23T02:26:12.353Z,67.03
2017-12-23T02:28:39.042Z,68.07
2017-12-23T02:31:13.951Z,67.10
2017-12-23T02:33:40.669Z,59.13
2017-12-23T02:36:07.343Z,58.23
2017-12-23T02:38:34.011Z,53.57
2017-12-23T02:41:00.710Z,75.43
2017-12-23T02:43:29.551Z,59.63
2017-12-23T02:45:56.201Z,72.47
2017-12-23T02:48:23.100Z,65.47
2017-12-23T02:50:49.896Z,60.47
2017-12-23T02:53:17.509Z,69.03
2017-12-23T02:55:45.229Z,61.30
2017-12-23T02:58:11.914Z,73.30
2017-12-23T03:00:38.796Z,64.87
2017-12-23T03:03:05.455Z,68.17
2017-12-23T03:05:32.285Z,71.97
2017-12-23T03:07:59.122Z,62.80
2017-12-23T03:10:25.805Z,71.13
2017-12-23T03:12:52.473Z,65.93
2017-12-23T03:15:19.153Z,66.30
2017-12-23T03:17:45.990Z,57.73
2017-12-23T03:20:12.675Z,61.03
2017-12-23T03:22:39.546Z,58.27
2017-12-23T03:25:06.248Z,56.80
2017-12-23T03:27:32.929Z,55.50
2017-12-23T03:30:00.388Z,62.83
2017-12-23T03:32:27.229Z,45.53
2017-12-23T03:34:55.983Z,51.70
2017-12-23T03:37:22.655Z,50.90
2017-12-23T03:39:49.470Z,48.17
2017-12-23T03:42:16.159Z,46.37
2017-12-23T03:44:48.988Z,47.47
2017-12-23T03:47:15.656Z,53.30
2017-12-23T03:49:42.358Z,49.27
2017-12-23T03:52:09.467Z,50.57
2017-12-23T03:54:37.407Z,46.67
2017-12-23T03:57:04.095Z,40.50
2017-12-23T03:59:30.808Z,40.97
2017-12-23T04:01:58.568Z,37.50
2017-12-23T04:07:20.341Z,30.97
2017-12-23T04:09:47.009Z,34.37
2017-12-23T04:12:13.680Z,39.53
2017-12-23T04:14:40.354Z,36.20
2017-12-23T04:17:07.022Z,35.73
2017-12-23T04:19:33.690Z,41.40
2017-12-23T04:22:00.333Z,41.77
2017-12-23T04:24:27.021Z,43.87
2017-12-23T04:26:59.584Z,49.03
2017-12-23T04:29:26.261Z,48.50
2017-12-23T04:31:52.929Z,65.40
2017-12-23T04:34:19.576Z,56.40
2017-12-23T04:36:46.344Z,49.77
2017-12-23T04:41:47.712Z,54.17
2017-12-23T04:44:25.296Z,60.80
2017-12-23T04:46:51.971Z,52.50
2017-12-23T04:49:18.735Z,54.40
2017-12-23T04:51:45.401Z,56.83
2017-12-23T04:54:12.065Z,53.50
2017-12-23T04:56:38.724Z,52.97
2017-12-23T04:59:05.371Z,58.57
2017-12-23T05:01:32.081Z,55.83
2017-12-23T05:03:58.885Z,59.40
2017-12-23T05:09:26.745Z,56.37
2017-12-23T05:11:53.544Z,55.07
2017-12-23T05:14:20.321Z,64.53
2017-12-23T05:16:47.025Z,56.00
2017-12-23T05:19:13.708Z,61.37
2017-12-23T05:21:46.027Z,59.77
2017-12-23T05:24:12.921Z,69.87
2017-12-23T05:26:39.845Z,62.13
2017-12-23T05:29:06.610Z,64.23
2017-12-23T05:31:33.402Z,69.40
2017-12-23T05:34:01.012Z,59.27
2017-12-23T05:36:27.929Z,70.67
2017-12-23T05:38:54.653Z,71.23
2017-12-23T05:41:22.175Z,71.50
2017-12-23T05:43:48.856Z,68.37
2017-12-23T05:46:15.721Z,73.93
2017-12-23T05:48:42.418Z,77.20
2017-12-23T05:51:09.366Z,73.23
2017-12-23T05:53:37.457Z,80.77
2017-12-23T05:56:04.351Z,85.67
2017-12-23T05:58:34.009Z,83.40
2017-12-23T06:01:00.740Z,72.57
2017-12-23T06:03:32.872Z,83.93
2017-12-23T06:05:59.870Z,99.10
2017-12-23T06:08:26.905Z,86.13
2017-12-23T06:10:54.680Z,101.20
2017-12-23T06:13:37.385Z,91.60
2017-12-23T06:16:04.073Z,86.70
2017-12-23T06:18:30.806Z,81.17
2017-12-23T06:20:57.486Z,89.70
2017-12-23T06:23:24.564Z,84.27
2017-12-23T06:25:51.230Z,91.60
2017-12-23T06:28:18.235Z,84.53
2017-12-23T06:30:56.841Z,86.57
2017-12-23T06:33:23.504Z,86.50
2017-12-23T06:35:50.334Z,84.83
2017-12-23T06:38:17.587Z,96.37
2017-12-23T06:40:44.301Z,100.83
2017-12-23T06:43:10.949Z,95.57
2017-12-23T06:45:37.617Z,94.07
2017-12-23T06:48:04.330Z,93.63
2017-12-23T06:50:41.879Z,95.50
2017-12-23T06:53:08.608Z,89.87
2017-12-23T06:55:53.914Z,87.50
2017-12-23T06:58:22.103Z,94.23
2017-12-23T07:00:48.841Z,96.13
2017-12-23T07:03:15.525Z,88.40
2017-12-23T07:05:42.333Z,68.90
2017-12-23T07:08:09.047Z,78.77
2017-12-23T07:10:35.751Z,70.57
2017-12-23T07:13:02.531Z,81.23
2017-12-23T07:15:29.304Z,61.77
2017-12-23T07:17:57.067Z,67.20
2017-12-23T07:20:25.258Z,62.20
2017-12-23T07:22:52.037Z,72.97
2017-12-23T07:25:18.932Z,60.10
2017-12-23T07:27:58.326Z,60.30
2017-12-23T07:30:25.243Z,59.80
2017-12-23T07:32:51.918Z,60.20
2017-12-23T07:35:19.376Z,58.03
2017-12-23T07:37:46.417Z,49.97
2017-12-23T07:40:24.593Z,50.47
2017-12-23T07:42:51.381Z,52.77
2017-12-23T07:45:18.526Z,50.17
2017-12-23T07:47:48.390Z,51.40
2017-12-23T07:50:16.779Z,53.37
2017-12-23T07:52:44.570Z,50.77
2017-12-23T07:55:11.829Z,57.87
2017-12-23T07:57:38.531Z,50.23
2017-12-23T08:00:05.707Z,60.03
2017-12-23T08:02:36.301Z,59.00
2017-12-23T08:05:06.443Z,48.77
2017-12-23T08:07:36.418Z,42.90
2017-12-23T08:10:15.649Z,43.67
2017-12-23T08:12:42.801Z,43.90
2017-12-23T08:15:09.612Z,48.10
2017-12-23T08:17:37.112Z,46.50
2017-12-23T08:20:04.355Z,46.03
2017-12-23T08:22:31.077Z,44.60
2017-12-23T08:24:57.720Z,52.30
2017-12-23T08:27:24.513Z,44.00
2017-12-23T08:29:52.434Z,44.97
2017-12-23T08:32:25.903Z,48.80
2017-12-23T08:37:32.277Z,55.90
2017-12-23T08:40:10.233Z,42.53
2017-12-23T08:42:37.577Z,52.17
2017-12-23T08:45:08.602Z,43.00
2017-12-23T08:50:30.112Z,37.07
2017-12-23T08:52:56.964Z,40.37
2017-12-23T08:55:23.910Z,37.27
2017-12-23T08:57:50.625Z,41.67
2017-12-23T09:00:18.312Z,31.17
2017-12-23T09:02:45.062Z,33.30
2017-12-23T09:05:11.887Z,38.10
2017-12-23T09:07:38.770Z,33.73
2017-12-23T09:10:05.669Z,38.37
2017-12-23T09:12:32.430Z,37.00
2017-12-23T09:14:59.593Z,33.90
2017-12-23T09:17:26.836Z,29.20
2017-12-23T09:19:54.005Z,34.83
2017-12-23T09:22:25.256Z,31.53
2017-12-23T09:24:52.019Z,27.33
2017-12-23T09:27:39.610Z,24.47
2017-12-23T09:30:06.377Z,30.00
2017-12-23T09:32:33.380Z,27.00
2017-12-23T09:35:01.369Z,29.53
2017-12-23T09:37:28.636Z,32.50
2017-12-23T09:40:19.488Z,35.13
2017-12-23T09:42:51.433Z,35.43
2017-12-23T09:45:22.873Z,40.40
2017-12-23T09:47:50.683Z,41.50
2017-12-23T09:50:19.683Z,44.00
2017-12-23T09:52:46.690Z,46.30
2017-12-23T09:55:15.682Z,46.53
2017-12-23T09:57:42.631Z,42.23
2017-12-23T10:00:11.303Z,44.00
2017-12-23T10:02:38.165Z,50.67
2017-12-23T10:05:04.944Z,44.80
2017-12-23T10:07:32.379Z,46.73
2017-12-23T10:10:02.173Z,42.47
2017-12-23T10:12:30.569Z,40.83
2017-12-23T10:17:36.624Z,32.67
2017-12-23T10:20:03.677Z,35.60
2017-12-23T10:22:31.804Z,33.70
2017-12-23T10:24:59.785Z,40.57
2017-12-23T10:27:44.744Z,33.07
2017-12-23T10:30:11.552Z,34.87
2017-12-23T10:32:39.518Z,35.30
2017-12-23T10:35:19.599Z,29.20
2017-12-23T10:37:51.193Z,31.00
2017-12-23T10:40:51.686Z,31.97
2017-12-23T10:43:18.488Z,30.13
2017-12-23T10:45:46.145Z,27.77
2017-12-23T10:48:21.556Z,28.87
2017-12-23T10:50:48.281Z,27.93
2017-12-23T10:53:35.832Z,22.07
2017-12-23T10:56:08.117Z,23.60
2017-12-23T10:58:47.637Z,26.33
2017-12-23T11:01:17.770Z,21.80
2017-12-23T11:03:46.168Z,23.07
2017-12-23T11:06:12.940Z,21.23
2017-12-23T11:08:39.635Z,20.60
2017-12-23T11:11:16.668Z,20.13
2017-12-23T11:13:43.679Z,20.03
2017-12-23T11:16:11.041Z,21.60
2017-12-23T11:18:48.997Z,21.40
2017-12-23T11:21:15.848Z,21.57
2017-12-23T11:24:03.413Z,20.77
2017-12-23T11:26:30.462Z,20.37
2017-12-23T11:31:53.029Z,20.27
2017-12-23T11:34:48.293Z,22.70
2017-12-23T11:37:15.797Z,22.03
2017-12-23T11:39:55.744Z,20.50
2017-12-23T11:42:22.991Z,21.10
2017-12-23T11:44:52.295Z,19.47
2017-12-23T11:47:20.031Z,19.60
2017-12-23T11:50:01.993Z,18.50
2017-12-23T11:55:46.926Z,14.33
2017-12-23T14:42:51.613Z,15.10
2017-12-23T14:45:20.364Z,31.83
2017-12-23T14:47:48.152Z,12.70
2017-12-23T14:50:15.342Z,141.03
2017-12-23T14:52:43.259Z,24.33
2017-12-23T14:55:11.155Z,21.63
2017-12-23T14:57:38.156Z,15.10
2017-12-23T15:00:10.921Z,22.00
2017-12-23T15:02:38.294Z,62.27
2017-12-23T15:05:08.621Z,23.23
2017-12-23T15:10:32.863Z,19.03
2017-12-23T15:13:04.152Z,16.67
2017-12-23T15:15:38.021Z,14.57
2017-12-23T15:18:05.993Z,10.40
2017-12-23T15:20:46.145Z,12.30
2017-12-23T15:23:15.400Z,21.10
2017-12-23T15:25:45.487Z,14.60
2017-12-23T15:28:54.473Z,11.73
2017-12-23T15:31:22.408Z,12.47
2017-12-23T15:33:50.248Z,8.77
2017-12-23T15:36:17.703Z,10.87
2017-12-23T15:38:45.685Z,9.40
2017-12-23T15:41:12.737Z,10.30
2017-12-23T15:43:40.417Z,11.00
2017-12-23T15:46:07.070Z,10.77
2017-12-23T15:51:06.719Z,10.43
2017-12-23T15:53:33.757Z,12.40
2017-12-23T15:56:01.707Z,10.53
2017-12-23T15:58:28.429Z,11.80
2017-12-23T16:00:58.725Z,10.10
2017-12-23T16:03:26.394Z,11.40
2017-12-23T16:05:54.461Z,11.40
2017-12-23T16:08:25.248Z,11.67
2017-12-23T16:10:52.234Z,11.40
2017-12-23T16:13:19.469Z,10.53
2017-12-23T16:15:46.253Z,11.57
2017-12-23T16:18:13.948Z,12.20
2017-12-23T16:20:41.191Z,11.30
2017-12-23T16:23:09.032Z,12.93
2017-12-23T16:25:35.753Z,14.53
2017-12-23T16:28:02.493Z,12.77
2017-12-23T16:30:29.179Z,13.30
2017-12-23T16:32:55.909Z,13.33
2017-12-23T16:35:22.825Z,13.60
2017-12-23T16:37:49.703Z,15.43
2017-12-23T16:40:16.509Z,11.70
2017-12-23T16:42:43.380Z,13.27
2017-12-23T16:45:10.227Z,14.73
2017-12-23T16:47:37.163Z,13.80
2017-12-23T16:50:04.738Z,13.13
2017-12-23T16:52:35.053Z,11.80
2017-12-23T16:55:05.611Z,12.33
2017-12-23T16:57:32.502Z,12.43
2017-12-23T16:59:59.318Z,10.50
2017-12-23T17:02:26.072Z,11.43
2017-12-23T17:04:52.987Z,12.60
2017-12-23T17:07:19.977Z,13.07
2017-12-23T17:09:46.799Z,11.73
2017-12-23T17:12:15.045Z,12.87
2017-12-23T17:14:43.548Z,12.23
2017-12-23T17:17:11.777Z,12.37
2017-12-23T17:19:38.706Z,15.37
2017-12-23T17:22:05.732Z,12.60
2017-12-23T17:24:32.546Z,12.87
2017-12-23T17:26:59.407Z,11.50
2017-12-23T17:29:34.617Z,14.47
2017-12-23T17:32:03.312Z,11.20
2017-12-23T17:34:30.367Z,14.93
2017-12-23T17:37:09.792Z,13.03
2017-12-23T17:39:37.516Z,13.50
2017-12-23T17:42:06.573Z,12.43
2017-12-23T17:47:19.875Z,16.03
2017-12-23T17:49:46.836Z,13.50
2017-12-23T17:52:14.319Z,18.10
2017-12-23T17:54:41.266Z,16.20
2017-12-23T17:57:08.422Z,20.87
2017-12-23T17:59:35.089Z,23.90
2017-12-23T18:02:01.743Z,18.10
2017-12-23T18:04:30.396Z,16.30
2017-12-23T18:06:57.221Z,17.13
2017-12-23T18:09:24.240Z,13.50
2017-12-23T18:11:50.906Z,17.27
2017-12-23T18:14:17.706Z,14.57
2017-12-23T18:16:44.369Z,16.23
2017-12-23T18:19:11.116Z,15.37
2017-12-23T18:21:37.799Z,16.47
2017-12-23T18:24:04.512Z,17.73
2017-12-23T18:26:31.290Z,18.87
2017-12-23T18:28:58.108Z,16.57
2017-12-23T18:31:24.969Z,16.40
2017-12-23T18:33:51.684Z,14.57
2017-12-23T18:36:18.390Z,14.90
2017-12-23T18:38:45.205Z,15.33
2017-12-23T18:41:11.877Z,15.77
2017-12-23T18:43:38.588Z,16.90
2017-12-23T18:46:06.513Z,17.80
2017-12-23T18:48:46.334Z,16.73
2017-12-23T18:51:23.331Z,18.87
2017-12-23T18:53:50.060Z,15.93
2017-12-23T18:56:16.724Z,15.73
2017-12-23T18:58:43.416Z,15.43
2017-12-23T19:01:10.339Z,16.53
2017-12-23T19:03:37.377Z,15.30
2017-12-23T19:06:04.136Z,16.63
2017-12-23T19:08:37.667Z,15.30
2017-12-23T19:11:04.830Z,15.90
2017-12-23T19:13:32.369Z,19.93
2017-12-23T19:15:59.190Z,17.27
2017-12-23T19:18:26.592Z,18.97
2017-12-23T19:20:54.105Z,17.20
2017-12-23T19:23:21.926Z,18.20
2017-12-23T19:25:48.704Z,17.60
2017-12-23T19:28:16.097Z,21.57
2017-12-23T19:30:42.828Z,18.80
2017-12-23T19:33:10.627Z,17.83
2017-12-23T19:35:49.182Z,19.67
2017-12-23T19:38:15.867Z,20.20
2017-12-23T19:40:42.626Z,20.30
2017-12-23T19:43:10.172Z,20.70
2017-12-23T19:45:37.050Z,18.70
2017-12-23T19:48:05.032Z,20.07
2017-12-23T19:50:32.289Z,21.30
2017-12-23T19:52:59.116Z,22.23
2017-12-23T19:55:26.021Z,21.27
2017-12-23T19:57:53.968Z,21.90
2017-12-23T20:00:22.355Z,20.33
2017-12-23T20:02:51.082Z,22.70
2017-12-23T20:05:17.989Z,19.00
2017-12-23T20:07:45.951Z,19.73
2017-12-23T20:10:13.930Z,26.00
2017-12-23T20:12:40.829Z,20.00
2017-12-23T20:15:07.788Z,21.13
2017-12-23T20:17:36.657Z,19.77
2017-12-23T20:20:05.967Z,21.10
2017-12-23T20:22:33.958Z,21.70
2017-12-23T20:25:00.666Z,20.00
2017-12-23T20:27:27.310Z,22.13
2017-12-23T20:29:55.071Z,20.43
2017-12-23T20:32:22.065Z,20.10
2017-12-23T20:34:50.741Z,20.30
2017-12-23T20:37:17.610Z,18.23
2017-12-23T20:39:47.962Z,21.37
2017-12-23T20:42:14.669Z,19.17
2017-12-23T20:44:41.353Z,20.67
2017-12-23T20:47:08.468Z,21.80
2017-12-23T20:49:37.425Z,22.60
2017-12-23T20:52:05.164Z,19.80
2017-12-23T20:54:31.920Z,26.13
2017-12-23T20:56:59.768Z,22.33
2017-12-23T20:59:32.755Z,20.70
2017-12-23T21:02:01.014Z,20.67
2017-12-23T21:07:19.354Z,21.60
2017-12-23T21:09:46.814Z,22.43
2017-12-23T21:12:24.394Z,20.97
2017-12-23T21:14:54.529Z,19.77
2017-12-23T21:17:23.048Z,19.37
2017-12-23T21:19:49.841Z,20.10
2017-12-23T21:22:16.603Z,18.53
2017-12-23T21:24:44.735Z,19.00
2017-12-23T21:27:11.896Z,22.50
2017-12-23T21:29:38.605Z,20.97
2017-12-23T21:34:40.154Z,20.83
2017-12-23T21:37:06.869Z,22.10
2017-12-23T21:39:33.975Z,19.07
2017-12-23T21:42:03.584Z,25.80
2017-12-23T21:44:31.398Z,23.10
2017-12-23T21:46:58.088Z,23.70
2017-12-23T21:49:24.751Z,23.47
2017-12-23T21:51:53.021Z,22.20
2017-12-23T21:54:19.775Z,22.70
2017-12-23T21:56:46.797Z,25.67
2017-12-23T21:59:13.493Z,22.97
2017-12-23T22:01:43.467Z,25.13
2017-12-23T22:04:10.396Z,24.40
2017-12-23T22:06:48.512Z,23.40
2017-12-23T22:09:16.553Z,26.00
2017-12-23T22:11:43.318Z,24.10
2017-12-23T22:14:10.339Z,22.50
2017-12-23T22:16:37.167Z,23.00
2017-12-23T22:19:05.060Z,20.20
2017-12-23T22:26:02.370Z,17.70
2017-12-23T22:28:29.388Z,20.00
2017-12-23T22:30:57.172Z,16.13
2017-12-23T22:33:24.208Z,19.73
2017-12-23T22:35:51.069Z,16.13
2017-12-23T22:38:17.882Z,18.10
2017-12-23T22:41:04.018Z,16.90
2017-12-23T22:43:30.838Z,15.23
2017-12-23T22:45:58.213Z,14.70
2017-12-23T22:48:25.460Z,16.37
2017-12-23T22:50:52.201Z,15.50
2017-12-23T22:53:20.420Z,15.47
2017-12-23T22:55:47.121Z,14.90
2017-12-23T22:58:14.146Z,15.80
2017-12-23T23:00:41.430Z,15.40
2017-12-23T23:03:08.142Z,14.40
2017-12-23T23:05:34.840Z,15.30
2017-12-23T23:08:01.750Z,14.63
2017-12-23T23:10:31.795Z,12.63
2017-12-23T23:13:00.796Z,12.70
2017-12-23T23:15:28.392Z,13.33
2017-12-23T23:17:55.142Z,11.63
2017-12-23T23:20:22.038Z,11.23
2017-12-23T23:22:50.391Z,12.17
2017-12-23T23:25:18.594Z,12.77
2017-12-23T23:27:48.583Z,14.03
2017-12-23T23:30:15.776Z,13.37
2017-12-23T23:32:42.605Z,16.87
2017-12-23T23:35:09.347Z,13.90
2017-12-23T23:37:36.024Z,15.73
2017-12-23T23:40:03.681Z,14.33
2017-12-23T23:45:06.357Z,15.60
2017-12-23T23:47:33.361Z,17.37
2017-12-23T23:50:00.218Z,16.43
2017-12-23T23:52:26.998Z,15.73
2017-12-23T23:54:56.889Z,17.30
2017-12-23T23:57:42.026Z,14.80
